Time;durP1;ratioP1;P1;durP2;ratioP2;P2;SDS_P1;SDS_P2;PMS_P1;PMS_P2;Temp;Humidity;BMP_temperature;BMP_pressure;BME280_temperature;BME280_humidity;BME280_pressure;Samples;Min_cycle;Max_cycle;Signal;HPM_P1;HPM_P2
2023/12/19 00:00:45;;;;;;;7.93;4.68;;;20.10;76.60;;;;;;2067296;28;20026;-50
2023/12/19 00:01:46;;;;;;;7.70;4.70;;;20.00;76.60;;;;;;2071034;28;20393;-51
2023/12/19 00:02:47;;;;;;;10.18;4.80;;;20.00;76.60;;;;;;2068728;28;20034;-50
2023/12/19 00:03:47;;;;;;;7.65;4.75;;;20.00;76.50;;;;;;2067840;28;20049;-51
2023/12/19 00:04:48;;;;;;;9.80;4.40;;;20.00;76.50;;;;;;2068378;28;20029;-51
2023/12/19 00:05:49;;;;;;;12.85;4.45;;;20.00;76.50;;;;;;2067327;28;20101;-50
2023/12/19 00:06:49;;;;;;;8.30;5.07;;;20.00;76.60;;;;;;2067242;28;20045;-50
2023/12/19 00:07:50;;;;;;;7.05;4.10;;;20.00;76.50;;;;;;2070788;28;20032;-51
2023/12/19 00:08:51;;;;;;;6.22;4.45;;;20.00;76.50;;;;;;2068104;28;20018;-52
2023/12/19 00:09:51;;;;;;;5.50;4.03;;;20.00;76.60;;;;;;2068752;28;20022;-55
2023/12/19 00:10:52;;;;;;;9.25;4.53;;;20.00;76.60;;;;;;2068523;28;20026;-52
2023/12/19 00:11:52;;;;;;;7.95;4.45;;;20.00;76.50;;;;;;2068140;28;20059;-51
2023/12/19 00:12:53;;;;;;;7.78;4.25;;;19.90;77.10;;;;;;2070389;28;20028;-51
2023/12/19 00:13:54;;;;;;;6.85;4.28;;;20.00;76.50;;;;;;2068192;28;20034;-52
2023/12/19 00:14:54;;;;;;;7.28;4.47;;;20.00;76.50;;;;;;2068240;28;20033;-54
2023/12/19 00:15:55;;;;;;;7.55;4.43;;;20.00;76.50;;;;;;2068436;28;20088;-51
2023/12/19 00:16:55;;;;;;;8.85;4.57;;;20.10;76.70;;;;;;2066017;28;20108;-50
2023/12/19 00:17:56;;;;;;;7.47;4.72;;;20.00;76.50;;;;;;2067037;28;20485;-51
2023/12/19 00:18:56;;;;;;;7.35;4.25;;;20.00;76.50;;;;;;2067914;28;20032;-53
2023/12/19 00:19:57;;;;;;;8.20;4.15;;;20.00;76.50;;;;;;2066154;28;20080;-52
2023/12/19 00:20:57;;;;;;;12.10;5.68;;;20.00;76.40;;;;;;2066465;28;20038;-51
2023/12/19 00:21:58;;;;;;;8.02;4.65;;;20.00;76.40;;;;;;2066674;28;20058;-50
2023/12/19 00:22:59;;;;;;;7.95;4.97;;;20.00;76.40;;;;;;2068801;28;20563;-51
2023/12/19 00:23:59;;;;;;;9.30;4.18;;;20.00;76.40;;;;;;2072201;28;20029;-50
2023/12/19 00:25:00;;;;;;;9.90;4.75;;;20.00;76.40;;;;;;2068533;28;20058;-52
2023/12/19 00:26:00;;;;;;;6.07;4.18;;;20.00;76.40;;;;;;2068728;28;20031;-50
2023/12/19 00:27:01;;;;;;;7.28;4.78;;;19.90;76.40;;;;;;2068878;28;20044;-51
2023/12/19 00:28:01;;;;;;;6.88;4.70;;;20.00;76.40;;;;;;2067221;28;20046;-51
2023/12/19 00:29:02;;;;;;;6.68;3.97;;;19.90;76.30;;;;;;2067925;28;20055;-51
2023/12/19 00:30:03;;;;;;;7.85;4.43;;;19.90;76.30;;;;;;2067978;28;20022;-51
2023/12/19 00:31:03;;;;;;;7.00;4.10;;;19.90;76.20;;;;;;2070805;28;20382;-51
2023/12/19 00:32:04;;;;;;;8.55;4.55;;;20.00;76.20;;;;;;2068407;28;20018;-50
2023/12/19 00:33:05;;;;;;;7.28;4.38;;;19.90;76.20;;;;;;2066933;28;20029;-51
2023/12/19 00:34:05;;;;;;;7.43;5.30;;;19.90;76.20;;;;;;2069016;28;20198;-51
2023/12/19 00:35:08;;;;;;;5.57;4.00;;;19.90;76.20;;;;;;2068553;28;20036;-52
2023/12/19 00:36:08;;;;;;;6.97;4.32;;;19.90;76.10;;;;;;2070551;28;20014;-50
2023/12/19 00:37:09;;;;;;;6.50;4.43;;;20.00;76.20;;;;;;2071182;28;20022;-53
2023/12/19 00:38:09;;;;;;;7.00;3.97;;;19.90;76.10;;;;;;2066806;28;20018;-50
2023/12/19 00:39:10;;;;;;;7.47;3.88;;;19.90;76.10;;;;;;2070915;28;20084;-51
2023/12/19 00:40:12;;;;;;;8.75;4.13;;;19.90;76.20;;;;;;2071972;28;20045;-51
2023/12/19 00:41:13;;;;;;;6.50;4.32;;;19.90;76.20;;;;;;2067083;28;20049;-51
2023/12/19 00:42:13;;;;;;;6.90;4.30;;;20.00;76.70;;;;;;2067877;28;20053;-51
2023/12/19 00:43:14;;;;;;;8.27;4.13;;;19.90;76.10;;;;;;2071888;28;20054;-51
2023/12/19 00:44:15;;;;;;;5.82;3.97;;;20.00;76.10;;;;;;2067406;28;20350;-51
2023/12/19 00:45:15;;;;;;;7.82;4.97;;;19.90;76.10;;;;;;2068113;28;20022;-51
2023/12/19 00:46:16;;;;;;;8.00;5.25;;;19.90;76.10;;;;;;2067785;28;20081;-51
2023/12/19 00:47:16;;;;;;;6.95;4.68;;;19.90;76.10;;;;;;2070973;28;20055;-53
2023/12/19 00:48:17;;;;;;;9.00;4.00;;;19.90;76.00;;;;;;2067923;28;20026;-50
2023/12/19 00:49:18;;;;;;;7.85;3.83;;;19.90;76.10;;;;;;2071374;28;20022;-50
2023/12/19 00:50:18;;;;;;;5.20;3.40;;;19.90;76.10;;;;;;2071325;28;20036;-51
2023/12/19 00:51:20;;;;;;;8.52;4.20;;;19.90;76.10;;;;;;2072131;28;20058;-51
2023/12/19 00:52:21;;;;;;;9.60;5.30;;;19.80;76.00;;;;;;2067101;28;20511;-52
2023/12/19 00:53:21;;;;;;;7.03;4.53;;;19.90;76.00;;;;;;2072002;28;20213;-50
2023/12/19 00:54:22;;;;;;;9.48;4.53;;;19.90;76.00;;;;;;2066922;28;20066;-52
2023/12/19 00:55:24;;;;;;;5.43;3.63;;;19.90;76.00;;;;;;2068022;28;20026;-51
2023/12/19 00:56:25;;;;;;;6.85;4.22;;;19.90;76.00;;;;;;2068134;28;20023;-53
2023/12/19 00:57:25;;;;;;;7.75;4.22;;;19.80;76.00;;;;;;2071214;28;20687;-51
2023/12/19 00:58:26;;;;;;;7.55;4.22;;;19.90;76.00;;;;;;2071211;28;20323;-52
2023/12/19 00:59:27;;;;;;;5.38;3.97;;;19.80;76.00;;;;;;2072108;28;20321;-50
2023/12/19 01:00:27;;;;;;;8.55;4.35;;;19.90;76.00;;;;;;2067630;28;20449;-52
2023/12/19 01:01:28;;;;;;;7.53;4.20;;;19.90;76.00;;;;;;2067588;28;20409;-53
2023/12/19 01:02:31;;;;;;;7.70;4.07;;;19.90;76.00;;;;;;2070788;28;20018;-52
2023/12/19 01:03:32;;;;;;;6.90;4.00;;;19.90;76.00;;;;;;2067755;28;20040;-52
2023/12/19 01:04:32;;;;;;;6.45;4.10;;;19.90;76.00;;;;;;2070297;28;20022;-51
2023/12/19 01:05:33;;;;;;;6.88;4.00;;;19.90;75.90;;;;;;2067430;28;20026;-52
2023/12/19 01:06:35;;;;;;;8.50;4.13;;;19.80;75.90;;;;;;2068186;28;20072;-51
2023/12/19 01:07:36;;;;;;;6.20;4.05;;;19.80;75.90;;;;;;2068041;28;20052;-50
2023/12/19 01:08:36;;;;;;;6.95;4.25;;;19.80;75.90;;;;;;2070105;28;20044;-52
2023/12/19 01:09:37;;;;;;;7.05;4.45;;;19.80;75.90;;;;;;2068695;28;20034;-50
2023/12/19 01:10:37;;;;;;;8.40;4.32;;;19.80;75.90;;;;;;2068841;28;20022;-52
2023/12/19 01:11:38;;;;;;;7.30;4.03;;;19.80;75.80;;;;;;2068786;28;20025;-51
2023/12/19 01:12:38;;;;;;;5.68;3.85;;;19.80;75.80;;;;;;2067906;28;20060;-51
2023/12/19 01:13:39;;;;;;;7.50;5.20;;;19.90;75.90;;;;;;2068380;28;20022;-50
2023/12/19 01:14:40;;;;;;;7.05;4.20;;;19.80;75.80;;;;;;2067973;28;20080;-51
2023/12/19 01:15:40;;;;;;;9.40;5.00;;;19.80;75.80;;;;;;2067957;28;20018;-51
2023/12/19 01:16:41;;;;;;;7.28;3.97;;;19.80;76.40;;;;;;2067383;28;20026;-54
2023/12/19 01:17:42;;;;;;;6.03;3.90;;;19.80;75.80;;;;;;2071078;28;20037;-51
2023/12/19 01:18:42;;;;;;;6.63;4.20;;;19.90;75.80;;;;;;2068312;28;20018;-51
2023/12/19 01:19:43;;;;;;;5.88;3.67;;;19.80;75.80;;;;;;2069316;28;20567;-51
2023/12/19 01:20:45;;;;;;;7.00;4.10;;;19.80;75.80;;;;;;2067872;28;20476;-54
2023/12/19 01:21:45;;;;;;;7.28;3.85;;;19.80;75.80;;;;;;2067812;28;20028;-54
2023/12/19 01:22:46;;;;;;;6.00;3.80;;;19.80;75.70;;;;;;2067186;28;20034;-50
2023/12/19 01:23:46;;;;;;;8.70;4.47;;;19.90;76.10;;;;;;2068400;28;20492;-53
2023/12/19 01:24:47;;;;;;;7.18;3.80;;;19.80;75.70;;;;;;2071561;28;20041;-52
2023/12/19 01:25:47;;;;;;;5.28;4.22;;;19.80;75.70;;;;;;2069754;28;20033;-52
2023/12/19 01:26:49;;;;;;;6.75;4.30;;;19.80;75.70;;;;;;2068141;28;20018;-50
2023/12/19 01:27:49;;;;;;;7.70;3.97;;;19.80;75.70;;;;;;2068181;28;20423;-51
2023/12/19 01:28:50;;;;;;;6.47;3.83;;;19.80;75.70;;;;;;2070738;28;20222;-50
2023/12/19 01:29:51;;;;;;;7.72;4.20;;;19.80;75.70;;;;;;2068372;28;20044;-53
2023/12/19 01:30:51;;;;;;;5.55;3.80;;;19.80;75.70;;;;;;2067026;28;20022;-51
2023/12/19 01:31:53;;;;;;;6.10;4.00;;;19.80;76.20;;;;;;2067807;28;20033;-53
2023/12/19 01:32:53;;;;;;;6.03;4.13;;;19.80;75.60;;;;;;2065710;28;20046;-51
2023/12/19 01:33:54;;;;;;;6.22;3.80;;;19.80;75.70;;;;;;2067729;28;20584;-52
2023/12/19 01:34:55;;;;;;;7.18;3.83;;;19.80;75.70;;;;;;2072100;28;20022;-52
2023/12/19 01:35:55;;;;;;;5.57;3.92;;;19.80;75.60;;;;;;2069544;28;20030;-50
2023/12/19 01:36:56;;;;;;;6.32;3.70;;;19.80;76.30;;;;;;2071732;28;20025;-50
2023/12/19 01:37:57;;;;;;;7.55;4.28;;;19.80;75.70;;;;;;2068151;28;20489;-50
2023/12/19 01:38:57;;;;;;;5.57;3.92;;;19.80;75.60;;;;;;2068995;28;20034;-52
2023/12/19 01:39:58;;;;;;;6.63;3.90;;;19.80;75.60;;;;;;2069779;28;20109;-51
2023/12/19 01:40:58;;;;;;;6.55;4.10;;;19.80;75.70;;;;;;2069278;28;20030;-50
2023/12/19 01:41:59;;;;;;;8.50;3.63;;;19.90;75.70;;;;;;2069238;28;20081;-51
2023/12/19 01:43:00;;;;;;;7.22;4.28;;;19.80;75.60;;;;;;2069668;28;20034;-52
2023/12/19 01:44:01;;;;;;;7.10;4.15;;;19.80;75.60;;;;;;2068692;28;20022;-54
2023/12/19 01:45:08;;;;;;;5.72;3.72;;;19.80;75.60;;;;;;2070045;28;20021;-51
2023/12/19 01:46:17;;;;;;;5.72;4.13;;;19.80;75.60;;;;;;2067714;28;20026;-52
2023/12/19 01:47:18;;;;;;;5.30;3.60;;;19.80;75.60;;;;;;2066676;28;20564;-52
2023/12/19 01:48:19;;;;;;;5.35;3.60;;;19.70;75.60;;;;;;2070919;28;20033;-50
2023/12/19 01:49:20;;;;;;;7.65;3.70;;;19.70;75.60;;;;;;2067682;28;20018;-52
2023/12/19 01:50:21;;;;;;;8.02;3.78;;;19.70;76.20;;;;;;2066738;28;20053;-51
2023/12/19 01:51:22;;;;;;;5.50;3.88;;;19.70;75.60;;;;;;2069289;28;20064;-53
2023/12/19 01:52:22;;;;;;;4.97;3.55;;;19.70;75.50;;;;;;2065513;28;20026;-50
2023/12/19 01:53:24;;;;;;;5.55;3.78;;;19.70;75.50;;;;;;2067311;28;20021;-55
2023/12/19 01:54:25;;;;;;;5.90;3.70;;;19.80;75.60;;;;;;2065941;28;20467;-51
2023/12/19 01:55:27;;;;;;;4.82;3.70;;;19.70;75.50;;;;;;2071441;28;20021;-51
2023/12/19 01:56:27;;;;;;;5.72;4.15;;;19.70;75.50;;;;;;2066580;28;20049;-51
2023/12/19 01:57:29;;;;;;;8.45;3.72;;;19.80;75.60;;;;;;2065461;28;20084;-50
2023/12/19 01:58:30;;;;;;;6.22;3.83;;;19.70;75.40;;;;;;2068394;28;20045;-50
2023/12/19 01:59:31;;;;;;;4.85;3.50;;;19.70;75.40;;;;;;2070653;28;20028;-51
2023/12/19 02:00:34;;;;;;;5.95;4.07;;;19.70;75.40;;;;;;2071235;28;20041;-51
2023/12/19 02:01:35;;;;;;;4.82;3.63;;;19.70;75.40;;;;;;2070726;28;20427;-52
2023/12/19 02:02:35;;;;;;;5.88;3.53;;;19.70;75.40;;;;;;2067418;28;20096;-52
2023/12/19 02:03:36;;;;;;;5.72;3.75;;;19.70;75.40;;;;;;2066943;28;20408;-50
2023/12/19 02:04:37;;;;;;;5.05;3.58;;;19.70;75.40;;;;;;2068259;28;20032;-51
2023/12/19 02:05:39;;;;;;;5.18;3.78;;;19.70;75.40;;;;;;2067717;28;20485;-54
2023/12/19 02:06:39;;;;;;;6.22;4.28;;;19.70;75.40;;;;;;2067704;28;20046;-50
2023/12/19 02:07:40;;;;;;;6.50;3.85;;;19.60;75.30;;;;;;2067151;28;20473;-50
2023/12/19 02:08:40;;;;;;;5.32;3.50;;;19.70;75.40;;;;;;2067704;28;20473;-53
2023/12/19 02:09:41;;;;;;;4.93;3.88;;;19.70;75.40;;;;;;2066649;28;20148;-51
2023/12/19 02:10:42;;;;;;;5.07;3.55;;;19.80;75.40;;;;;;2064715;28;20014;-51
2023/12/19 02:11:42;;;;;;;7.32;3.70;;;19.70;75.40;;;;;;2067920;28;20026;-54
2023/12/19 02:12:43;;;;;;;4.50;3.30;;;19.70;75.30;;;;;;2066992;28;20067;-50
2023/12/19 02:13:45;;;;;;;5.55;3.97;;;19.70;75.30;;;;;;2067107;28;20037;-51
2023/12/19 02:14:46;;;;;;;5.72;3.40;;;19.70;75.30;;;;;;2070968;28;20050;-52
2023/12/19 02:15:47;;;;;;;6.43;4.00;;;19.70;75.30;;;;;;2069128;28;20508;-50
2023/12/19 02:16:48;;;;;;;4.55;3.30;;;19.70;75.30;;;;;;2067936;28;20021;-50
2023/12/19 02:17:49;;;;;;;6.43;3.97;;;19.80;75.40;;;;;;2068192;28;20026;-50
2023/12/19 02:19:05;;;;;;;5.85;3.60;;;19.70;75.30;;;;;;2066811;28;20340;-50
2023/12/19 02:20:06;;;;;;;4.15;3.30;;;19.70;75.20;;;;;;2067475;28;20452;-51
2023/12/19 02:21:07;;;;;;;5.00;3.63;;;19.60;75.20;;;;;;2067659;28;20014;-52
2023/12/19 02:22:07;;;;;;;5.45;3.65;;;19.70;75.30;;;;;;2069406;28;20022;-51
2023/12/19 02:23:09;;;;;;;5.82;3.72;;;19.70;75.30;;;;;;2071289;28;20040;-52
2023/12/19 02:24:10;;;;;;;4.68;3.50;;;19.70;75.30;;;;;;2066069;28;20614;-50
2023/12/19 02:25:11;;;;;;;5.25;3.40;;;19.70;75.30;;;;;;2069619;28;20022;-52
2023/12/19 02:26:12;;;;;;;6.20;3.95;;;19.70;75.20;;;;;;2067630;28;20409;-52
2023/12/19 02:27:17;;;;;;;4.55;3.55;;;19.70;75.20;;;;;;2070198;28;20056;-50
2023/12/19 02:28:17;;;;;;;5.00;3.20;;;19.70;75.20;;;;;;2066962;28;20477;-53
2023/12/19 02:29:18;;;;;;;5.72;3.70;;;19.70;75.20;;;;;;2068044;28;20022;-53
2023/12/19 02:30:18;;;;;;;3.78;3.20;;;19.70;75.20;;;;;;2067142;28;20038;-50
2023/12/19 02:31:20;;;;;;;5.25;4.00;;;19.70;75.30;;;;;;2067221;28;20279;-52
2023/12/19 02:32:20;;;;;;;5.05;3.63;;;19.70;75.20;;;;;;2065735;28;20045;-50
2023/12/19 02:33:21;;;;;;;6.00;3.80;;;19.70;75.20;;;;;;2067350;28;20120;-51
2023/12/19 02:34:21;;;;;;;4.72;3.67;;;19.60;75.10;;;;;;2067567;28;20026;-50
2023/12/19 02:35:22;;;;;;;4.20;3.60;;;19.70;75.20;;;;;;2068251;28;20026;-50
2023/12/19 02:36:22;;;;;;;5.03;3.10;;;19.60;75.10;;;;;;2069487;28;20044;-50
2023/12/19 02:37:23;;;;;;;4.75;2.97;;;19.60;75.10;;;;;;2071272;28;20024;-50
2023/12/19 02:38:23;;;;;;;4.88;3.50;;;19.60;75.10;;;;;;2070123;28;20128;-52
2023/12/19 02:39:25;;;;;;;5.20;3.55;;;19.70;75.10;;;;;;2067370;28;20026;-54
2023/12/19 02:40:26;;;;;;;4.85;3.60;;;19.60;75.10;;;;;;2067576;28;20124;-51
2023/12/19 02:41:26;;;;;;;5.05;3.55;;;19.60;75.10;;;;;;2069325;28;20049;-52
2023/12/19 02:42:27;;;;;;;5.50;3.70;;;19.60;75.10;;;;;;2067567;28;20030;-51
2023/12/19 02:43:27;;;;;;;4.75;3.75;;;19.60;75.10;;;;;;2070725;28;20037;-51
2023/12/19 02:44:28;;;;;;;4.95;3.40;;;19.60;75.10;;;;;;2070492;28;20235;-51
2023/12/19 02:45:31;;;;;;;5.55;3.45;;;19.60;75.10;;;;;;2067593;28;20473;-50
2023/12/19 02:46:32;;;;;;;6.03;4.25;;;19.60;75.10;;;;;;2066940;28;20014;-50
2023/12/19 02:47:33;;;;;;;3.80;3.10;;;19.60;75.10;;;;;;2067149;28;20034;-51
2023/12/19 02:48:34;;;;;;;4.88;3.03;;;19.60;75.00;;;;;;2067686;28;20014;-50
2023/12/19 02:49:34;;;;;;;5.07;3.38;;;19.60;75.10;;;;;;2069705;28;20037;-51
2023/12/19 02:50:35;;;;;;;5.15;3.28;;;19.60;75.10;;;;;;2067053;28;20026;-52
2023/12/19 02:51:36;;;;;;;6.35;3.78;;;19.60;75.10;;;;;;2067640;28;20076;-52
2023/12/19 02:52:36;;;;;;;6.05;3.50;;;19.60;75.00;;;;;;2067759;28;20026;-51
2023/12/19 02:53:37;;;;;;;5.65;3.33;;;19.60;75.00;;;;;;2067786;28;20068;-50
2023/12/19 02:54:37;;;;;;;5.90;4.43;;;19.60;75.00;;;;;;2070389;28;20026;-52
2023/12/19 02:55:38;;;;;;;4.72;3.55;;;19.60;75.00;;;;;;2064519;28;20030;-51
2023/12/19 02:56:38;;;;;;;5.15;3.60;;;19.60;75.00;;;;;;2071008;28;20030;-51
2023/12/19 02:57:39;;;;;;;5.47;3.65;;;19.60;75.00;;;;;;2066881;28;20045;-51
2023/12/19 02:58:40;;;;;;;4.47;3.38;;;19.60;75.00;;;;;;2067351;28;20510;-52
2023/12/19 02:59:41;;;;;;;6.55;4.07;;;19.60;75.00;;;;;;2069109;28;20018;-50
2023/12/19 03:00:42;;;;;;;5.35;3.40;;;19.60;75.00;;;;;;2067371;28;20026;-51
2023/12/19 03:01:47;;;;;;;4.28;3.47;;;19.60;74.90;;;;;;2067081;28;20022;-53
2023/12/19 03:02:47;;;;;;;5.70;3.50;;;19.60;74.90;;;;;;2070757;28;20041;-53
2023/12/19 03:03:48;;;;;;;5.53;3.70;;;19.60;74.90;;;;;;2067361;28;20037;-51
2023/12/19 03:04:48;;;;;;;4.43;3.15;;;19.60;74.90;;;;;;2070827;28;20037;-51
2023/12/19 03:05:49;;;;;;;4.20;3.00;;;19.60;74.90;;;;;;2069629;28;20045;-51
2023/12/19 03:06:49;;;;;;;4.28;3.30;;;19.50;74.80;;;;;;2069779;28;20109;-51
2023/12/19 03:07:50;;;;;;;4.38;3.13;;;19.60;75.00;;;;;;2068045;28;20153;-54
2023/12/19 03:08:53;;;;;;;6.55;3.47;;;19.60;74.90;;;;;;2069614;28;20014;-51
2023/12/19 03:09:53;;;;;;;4.32;3.25;;;19.60;74.90;;;;;;2069464;28;20026;-51
2023/12/19 03:10:54;;;;;;;5.50;3.53;;;19.60;75.00;;;;;;2067512;28;20046;-51
2023/12/19 03:11:59;;;;;;;6.50;3.42;;;19.60;75.00;;;;;;2067429;28;20037;-54
2023/12/19 03:13:00;;;;;;;6.00;3.60;;;19.60;74.90;;;;;;2067700;28;20535;-50
2023/12/19 03:14:00;;;;;;;5.13;3.92;;;19.60;74.90;;;;;;2067025;28;20026;-52
2023/12/19 03:15:03;;;;;;;4.38;3.08;;;19.60;74.90;;;;;;2068320;28;20117;-51
2023/12/19 03:16:04;;;;;;;4.10;3.10;;;19.60;74.90;;;;;;2068935;28;20500;-51
2023/12/19 03:17:04;;;;;;;4.60;3.00;;;19.50;74.80;;;;;;2071277;28;20109;-51
2023/12/19 03:18:05;;;;;;;5.72;2.95;;;19.50;74.80;;;;;;2067184;28;20034;-52
2023/12/19 03:19:05;;;;;;;4.50;3.00;;;19.50;74.90;;;;;;2069270;28;20601;-53
2023/12/19 03:20:08;;;;;;;5.35;3.53;;;19.60;74.90;;;;;;2067969;28;20549;-50
2023/12/19 03:21:08;;;;;;;4.15;3.08;;;19.50;74.90;;;;;;2070193;28;20029;-50
2023/12/19 03:22:09;;;;;;;5.38;3.25;;;19.50;74.80;;;;;;2067836;28;20100;-51
2023/12/19 03:23:09;;;;;;;4.13;3.38;;;19.50;74.80;;;;;;2070795;28;20105;-51
2023/12/19 03:24:10;;;;;;;3.78;3.03;;;19.60;74.90;;;;;;2066931;28;20335;-51
2023/12/19 03:25:10;;;;;;;4.70;3.20;;;19.50;74.80;;;;;;2067763;28;20043;-50
2023/12/19 03:26:11;;;;;;;5.57;3.40;;;19.50;74.80;;;;;;2066917;28;20026;-50
2023/12/19 03:27:11;;;;;;;4.20;3.33;;;19.50;74.80;;;;;;2069554;28;20022;-53
2023/12/19 03:28:12;;;;;;;5.28;3.40;;;19.60;74.80;;;;;;2067453;28;20029;-50
2023/12/19 03:29:13;;;;;;;4.30;3.10;;;19.50;74.80;;;;;;2070559;28;20018;-52
2023/12/19 03:30:13;;;;;;;5.60;3.40;;;19.50;74.80;;;;;;2067267;28;20093;-51
2023/12/19 03:31:14;;;;;;;4.53;3.47;;;19.50;75.40;;;;;;2070507;28;20022;-52
2023/12/19 03:32:14;;;;;;;6.72;3.60;;;19.60;74.90;;;;;;2070745;28;20032;-51
2023/12/19 03:33:15;;;;;;;3.97;2.90;;;19.50;74.80;;;;;;2067576;28;20019;-50
2023/12/19 03:34:16;;;;;;;4.68;3.50;;;19.50;74.80;;;;;;2067868;28;20362;-51
2023/12/19 03:35:16;;;;;;;4.68;3.30;;;19.50;74.80;;;;;;2067144;28;20158;-53
2023/12/19 03:36:17;;;;;;;5.50;3.20;;;19.50;74.80;;;;;;2070387;28;20041;-51
2023/12/19 03:37:18;;;;;;;4.05;3.20;;;19.50;74.70;;;;;;2069128;28;20026;-52
2023/12/19 03:38:18;;;;;;;4.47;3.55;;;19.50;74.70;;;;;;2067591;28;20022;-52
2023/12/19 03:39:19;;;;;;;5.53;3.60;;;19.50;74.70;;;;;;2067411;28;20027;-51
2023/12/19 03:40:19;;;;;;;4.13;3.47;;;19.50;74.70;;;;;;2067843;28;20087;-50
2023/12/19 03:41:20;;;;;;;4.20;3.13;;;19.50;74.70;;;;;;2070523;28;20109;-50
2023/12/19 03:42:20;;;;;;;5.05;3.60;;;19.50;74.70;;;;;;2067732;28;20021;-51
2023/12/19 03:43:21;;;;;;;5.30;3.33;;;19.50;74.60;;;;;;2068627;28;20022;-54
2023/12/19 03:44:21;;;;;;;3.78;3.10;;;19.50;74.60;;;;;;2069117;28;20021;-50
2023/12/19 03:45:22;;;;;;;4.65;2.80;;;19.50;74.60;;;;;;2067529;28;20057;-50
2023/12/19 03:46:23;;;;;;;7.25;3.70;;;19.50;74.60;;;;;;2069243;28;20018;-51
2023/12/19 03:47:23;;;;;;;4.93;3.30;;;19.50;74.60;;;;;;2066309;28;20030;-50
2023/12/19 03:48:24;;;;;;;3.83;3.05;;;19.50;74.60;;;;;;2067649;28;20482;-50
2023/12/19 03:49:26;;;;;;;4.10;3.40;;;19.50;74.60;;;;;;2067283;28;20077;-53
2023/12/19 03:50:26;;;;;;;4.22;3.38;;;19.50;74.70;;;;;;2067263;28;20049;-52
2023/12/19 03:51:27;;;;;;;3.65;2.83;;;19.50;74.70;;;;;;2067265;28;20022;-51
2023/12/19 03:52:27;;;;;;;4.25;3.20;;;19.50;74.70;;;;;;2067943;28;20102;-50
2023/12/19 03:53:28;;;;;;;4.82;3.60;;;19.50;74.70;;;;;;2067180;28;20219;-51
2023/12/19 03:54:29;;;;;;;6.05;3.25;;;19.40;75.20;;;;;;2067428;28;20435;-51
2023/12/19 03:55:30;;;;;;;4.65;2.92;;;19.50;74.70;;;;;;2066414;28;20026;-50
2023/12/19 03:56:30;;;;;;;4.22;3.15;;;19.50;74.70;;;;;;2070595;28;20025;-54
2023/12/19 03:57:31;;;;;;;5.43;3.50;;;19.50;74.70;;;;;;2067367;28;20099;-51
2023/12/19 03:58:32;;;;;;;4.95;3.83;;;19.50;74.70;;;;;;2068379;28;20018;-50
2023/12/19 03:59:32;;;;;;;4.28;3.28;;;19.40;74.60;;;;;;2068975;28;20057;-52
2023/12/19 04:00:33;;;;;;;4.65;3.13;;;19.50;74.60;;;;;;2068898;28;20120;-51
2023/12/19 04:01:42;;;;;;;4.60;3.00;;;19.50;74.60;;;;;;2067293;28;20025;-51
2023/12/19 04:02:42;;;;;;;4.95;3.25;;;19.40;74.60;;;;;;2068859;28;20500;-52
2023/12/19 04:03:43;;;;;;;4.45;2.88;;;19.40;74.60;;;;;;2069109;28;20033;-51
2023/12/19 04:04:44;;;;;;;4.00;2.90;;;19.40;74.60;;;;;;2068926;28;20056;-50
2023/12/19 04:05:45;;;;;;;3.53;2.80;;;19.50;74.60;;;;;;2068939;28;20046;-50
2023/12/19 04:06:45;;;;;;;4.80;3.33;;;19.40;74.60;;;;;;2072555;28;20046;-51
2023/12/19 04:07:46;;;;;;;3.58;2.95;;;19.40;74.60;;;;;;2070904;28;20026;-51
2023/12/19 04:08:46;;;;;;;3.80;3.10;;;19.40;74.60;;;;;;2069541;28;20100;-55
2023/12/19 04:09:47;;;;;;;3.75;3.10;;;19.40;74.60;;;;;;2071914;28;20409;-51
2023/12/19 04:10:47;;;;;;;4.55;2.97;;;19.40;74.60;;;;;;2069449;28;20565;-54
2023/12/19 04:11:48;;;;;;;4.25;3.00;;;19.40;74.60;;;;;;2068710;28;20033;-51
2023/12/19 04:12:49;;;;;;;5.57;3.05;;;19.40;74.60;;;;;;2068961;28;20040;-50
2023/12/19 04:13:49;;;;;;;5.55;3.40;;;19.40;74.50;;;;;;2067606;28;20022;-51
2023/12/19 04:14:50;;;;;;;3.40;2.85;;;19.40;74.50;;;;;;2071829;28;20036;-51
2023/12/19 04:15:50;;;;;;;4.13;3.70;;;19.40;74.50;;;;;;2070949;28;20030;-51
2023/12/19 04:16:51;;;;;;;5.43;3.42;;;19.40;74.50;;;;;;2069301;28;20034;-51
2023/12/19 04:17:51;;;;;;;3.95;3.17;;;19.40;74.50;;;;;;2068923;28;20409;-51
2023/12/19 04:18:52;;;;;;;3.42;2.90;;;19.50;74.50;;;;;;2068034;28;20429;-51
2023/12/19 04:19:53;;;;;;;4.05;3.28;;;19.40;74.40;;;;;;2069625;28;20033;-52
2023/12/19 04:20:53;;;;;;;5.40;3.40;;;19.40;74.40;;;;;;2068288;28;20034;-50
2023/12/19 04:21:56;;;;;;;3.50;2.85;;;19.50;74.50;;;;;;2069048;28;20040;-53
2023/12/19 04:22:57;;;;;;;4.25;2.88;;;19.50;74.50;;;;;;2069049;28;20010;-51
2023/12/19 04:23:57;;;;;;;4.78;3.50;;;19.40;74.50;;;;;;2068584;28;20069;-52
2023/12/19 04:24:58;;;;;;;4.35;3.08;;;19.40;74.50;;;;;;2069098;28;20018;-52
2023/12/19 04:25:58;;;;;;;3.70;3.30;;;19.40;74.60;;;;;;2069609;28;20022;-51
2023/12/19 04:26:59;;;;;;;4.97;3.25;;;19.40;74.50;;;;;;2070010;28;20022;-53
2023/12/19 04:27:59;;;;;;;4.07;3.03;;;19.40;74.50;;;;;;2070520;28;20053;-50
2023/12/19 04:29:00;;;;;;;4.80;3.35;;;19.40;74.50;;;;;;2068517;28;20036;-50
2023/12/19 04:30:00;;;;;;;3.55;3.03;;;19.40;74.50;;;;;;2069650;28;20030;-54
2023/12/19 04:31:01;;;;;;;5.32;3.75;;;19.40;74.50;;;;;;2072124;28;20018;-51
2023/12/19 04:32:02;;;;;;;4.72;3.45;;;19.40;74.50;;;;;;2069347;28;20018;-53
2023/12/19 04:33:03;;;;;;;4.75;3.15;;;19.40;74.50;;;;;;2069001;28;20024;-50
2023/12/19 04:34:04;;;;;;;4.45;3.25;;;19.40;74.50;;;;;;2069453;28;20038;-51
2023/12/19 04:35:04;;;;;;;4.60;3.60;;;19.40;74.50;;;;;;2067549;28;20026;-52
2023/12/19 04:36:07;;;;;;;4.53;3.25;;;19.40;74.50;;;;;;2071059;28;20034;-52
2023/12/19 04:37:08;;;;;;;4.30;2.85;;;19.40;74.50;;;;;;2068429;28;20089;-50
2023/12/19 04:38:09;;;;;;;3.95;3.20;;;19.40;74.50;;;;;;2069855;28;20076;-50
2023/12/19 04:39:09;;;;;;;7.32;3.40;;;19.40;75.20;;;;;;2069165;28;20346;-50
2023/12/19 04:40:11;;;;;;;3.53;3.05;;;19.40;74.50;;;;;;2067057;28;20022;-50
2023/12/19 04:41:11;;;;;;;5.13;3.05;;;19.40;74.50;;;;;;2068646;28;20489;-51
2023/12/19 04:42:17;;;;;;;5.38;3.35;;;19.40;74.50;;;;;;2069157;28;20034;-51
2023/12/19 04:43:17;;;;;;;5.22;3.08;;;19.40;74.50;;;;;;2070133;28;20025;-51
2023/12/19 04:44:18;;;;;;;4.97;3.25;;;19.40;74.50;;;;;;2069078;28;20446;-52
2023/12/19 04:45:18;;;;;;;4.53;3.25;;;19.40;74.60;;;;;;2068891;28;20388;-52
2023/12/19 04:46:19;;;;;;;4.45;3.50;;;19.40;74.60;;;;;;2070002;28;20376;-52
2023/12/19 04:47:19;;;;;;;3.88;3.10;;;19.40;74.50;;;;;;2068889;28;20026;-50
2023/12/19 04:48:20;;;;;;;5.93;3.30;;;19.40;74.50;;;;;;2069014;28;20105;-50
2023/12/19 04:49:21;;;;;;;4.53;2.97;;;19.30;74.50;;;;;;2069270;28;20026;-52
2023/12/19 04:50:21;;;;;;;3.97;3.40;;;19.40;74.50;;;;;;2072170;28;20014;-50
2023/12/19 04:51:22;;;;;;;4.85;3.33;;;19.40;74.40;;;;;;2070382;28;20022;-50
2023/12/19 04:52:22;;;;;;;4.25;3.22;;;19.40;74.40;;;;;;2067933;28;20057;-51
2023/12/19 04:53:23;;;;;;;6.35;2.97;;;19.40;74.50;;;;;;2071641;28;20026;-51
2023/12/19 04:54:24;;;;;;;4.22;3.03;;;19.30;74.40;;;;;;2070464;28;20018;-51
2023/12/19 04:55:24;;;;;;;5.53;3.40;;;19.30;74.50;;;;;;2069293;28;20125;-52
2023/12/19 04:56:25;;;;;;;4.82;3.30;;;19.30;74.40;;;;;;2065336;28;20458;-51
2023/12/19 04:57:25;;;;;;;4.72;3.08;;;19.40;74.50;;;;;;2066129;28;20495;-52
2023/12/19 04:58:27;;;;;;;4.15;3.13;;;19.30;74.50;;;;;;2068463;28;20026;-50
2023/12/19 04:59:27;;;;;;;4.53;3.42;;;19.30;74.40;;;;;;2068313;28;20480;-51
2023/12/19 05:00:28;;;;;;;4.32;3.35;;;19.30;74.40;;;;;;2070580;28;20036;-51
2023/12/19 05:01:29;;;;;;;5.57;3.90;;;19.40;74.40;;;;;;2067430;28;20096;-53
2023/12/19 05:02:29;;;;;;;4.88;3.38;;;19.40;74.40;;;;;;2068161;28;20073;-51
2023/12/19 05:03:30;;;;;;;3.80;3.25;;;19.30;74.30;;;;;;2072069;28;20034;-53
2023/12/19 05:04:30;;;;;;;3.67;2.75;;;19.30;74.30;;;;;;2068822;28;20452;-52
2023/12/19 05:05:31;;;;;;;3.50;2.90;;;19.30;74.30;;;;;;2068811;28;20049;-51
2023/12/19 05:06:33;;;;;;;4.50;3.40;;;19.30;74.40;;;;;;2068897;28;20018;-51
2023/12/19 05:07:34;;;;;;;3.70;2.95;;;19.30;74.30;;;;;;2068486;28;20041;-50
2023/12/19 05:08:34;;;;;;;3.45;2.53;;;19.30;74.30;;;;;;2066488;28;20069;-51
2023/12/19 05:09:35;;;;;;;3.72;3.25;;;19.30;74.30;;;;;;2070881;28;20025;-50
2023/12/19 05:10:36;;;;;;;4.88;3.17;;;19.30;74.30;;;;;;2070249;28;20022;-51
2023/12/19 05:11:36;;;;;;;3.67;2.80;;;19.30;74.30;;;;;;2071719;28;20036;-51
2023/12/19 05:12:38;;;;;;;4.63;3.15;;;19.30;74.30;;;;;;2068634;28;20605;-50
2023/12/19 05:13:38;;;;;;;5.03;3.28;;;19.30;74.30;;;;;;2068102;28;20030;-50
2023/12/19 05:14:39;;;;;;;4.53;3.03;;;19.30;74.40;;;;;;2070692;28;20022;-52
2023/12/19 05:15:39;;;;;;;3.85;2.80;;;19.30;74.40;;;;;;2068409;28;20029;-50
2023/12/19 05:16:40;;;;;;;3.22;2.60;;;19.30;74.40;;;;;;2069941;28;20021;-53